Time;durP1;ratioP1;P1;durP2;ratioP2;P2;SDS_P1;SDS_P2;PMS_P1;PMS_P2;Temp;Humidity;BMP_temperature;BMP_pressure;BME280_temperature;BME280_humidity;BME280_pressure;Samples;Min_cycle;Max_cycle;Signal;HPM_P1;HPM_P2
2020/12/29 00:01:46;;;;;;;5.55;2.60;;;13.00;89.60;;;;;;5051387;28;20025;-76
2020/12/29 00:04:17;;;;;;;2.60;1.92;;;13.00;90.10;;;;;;5051159;28;20060;-75
2020/12/29 00:06:44;;;;;;;21.52;2.95;;;13.00;89.70;;;;;;5050166;28;20028;-75
2020/12/29 00:09:11;;;;;;;7.00;2.38;;;12.80;90.40;;;;;;5051570;28;20049;-75
2020/12/29 00:11:37;;;;;;;5.63;2.10;;;12.70;90.80;;;;;;5051431;28;20029;-75
2020/12/29 00:14:03;;;;;;;6.13;2.53;;;12.70;91.40;;;;;;5050679;28;20024;-76
2020/12/29 00:16:29;;;;;;;3.28;1.63;;;12.60;91.60;;;;;;5051617;28;20017;-76
2020/12/29 00:18:55;;;;;;;3.60;2.15;;;12.60;91.80;;;;;;5051493;28;20060;-75
2020/12/29 00:21:21;;;;;;;4.55;2.15;;;12.60;91.80;;;;;;5049993;28;20036;-75
2020/12/29 00:23:48;;;;;;;3.75;2.00;;;12.60;91.90;;;;;;5051462;28;20057;-76
2020/12/29 00:26:15;;;;;;;3.75;2.30;;;12.70;91.80;;;;;;5051529;28;20086;-76
2020/12/29 00:28:41;;;;;;;4.40;2.80;;;12.60;92.20;;;;;;5051597;28;20028;-75
2020/12/29 00:31:08;;;;;;;7.10;2.10;;;12.60;92.30;;;;;;5051397;28;20087;-75
2020/12/29 00:33:34;;;;;;;6.75;3.30;;;12.80;92.10;;;;;;5051181;28;20021;-75
2020/12/29 00:36:00;;;;;;;6.90;3.25;;;12.70;92.30;;;;;;5051270;28;20025;-75
2020/12/29 00:38:26;;;;;;;8.43;2.22;;;12.80;92.10;;;;;;5049797;28;20032;-75
2020/12/29 00:40:52;;;;;;;7.78;3.58;;;12.90;92.00;;;;;;5049763;28;20029;-75
2020/12/29 00:43:18;;;;;;;7.25;4.10;;;12.70;92.90;;;;;;5050891;28;20079;-75
2020/12/29 00:45:44;;;;;;;4.22;2.35;;;12.60;93.60;;;;;;5050753;28;20487;-75
2020/12/29 00:48:10;;;;;;;5.25;2.30;;;12.60;93.90;;;;;;5051045;28;20016;-76
2020/12/29 00:50:36;;;;;;;2.78;1.50;;;12.60;94.10;;;;;;5050997;28;20021;-76
2020/12/29 00:53:02;;;;;;;3.78;2.05;;;12.60;94.20;;;;;;5049695;28;20087;-76
2020/12/29 00:55:29;;;;;;;3.63;1.90;;;12.50;94.70;;;;;;5050969;28;20017;-75
2020/12/29 00:57:55;;;;;;;2.40;1.30;;;12.50;95.50;;;;;;5050823;28;20174;-75
2020/12/29 01:00:21;;;;;;;2.08;1.50;;;12.30;95.80;;;;;;5050846;28;20100;-75
2020/12/29 01:02:47;;;;;;;1.40;1.20;;;12.30;96.20;;;;;;5050948;28;20036;-75
2020/12/29 01:05:15;;;;;;;2.97;1.33;;;12.30;97.00;;;;;;5051156;28;20029;-76
2020/12/29 01:07:41;;;;;;;3.88;1.80;;;12.20;98.10;;;;;;5050788;28;20112;-76
2020/12/29 01:10:07;;;;;;;4.22;1.75;;;12.10;99.20;;;;;;5051090;28;20116;-76
2020/12/29 01:12:33;;;;;;;3.42;2.03;;;12.00;99.90;;;;;;5050960;28;20025;-75
2020/12/29 01:14:58;;;;;;;2.50;1.65;;;11.90;99.90;;;;;;5050852;28;20043;-76
2020/12/29 01:17:24;;;;;;;3.22;1.90;;;11.80;99.90;;;;;;5049684;28;20035;-76
2020/12/29 01:19:50;;;;;;;2.72;1.60;;;11.70;99.90;;;;;;5049749;28;20025;-76
2020/12/29 01:22:16;;;;;;;3.30;1.90;;;11.70;99.90;;;;;;5050937;28;20428;-76
2020/12/29 01:24:42;;;;;;;6.15;1.98;;;11.60;99.90;;;;;;5051058;28;20045;-76
2020/12/29 01:27:08;;;;;;;40.25;4.25;;;11.60;99.90;;;;;;5054799;28;20020;-76
2020/12/29 01:29:34;;;;;;;6.88;2.10;;;11.50;99.90;;;;;;5055373;28;20028;-77
2020/12/29 01:32:00;;;;;;;3.58;2.38;;;11.30;99.90;;;;;;5055557;28;20495;-78
2020/12/29 01:34:26;;;;;;;7.75;2.75;;;11.10;99.90;;;;;;5055757;28;20064;-78
2020/12/29 01:36:52;;;;;;;5.10;2.50;;;11.00;99.90;;;;;;5056008;28;20049;-78
2020/12/29 01:39:18;;;;;;;8.00;2.25;;;10.80;99.90;;;;;;5056592;28;20480;-79
2020/12/29 01:41:44;;;;;;;7.15;2.65;;;10.50;99.90;;;;;;5056612;28;20025;-80
2020/12/29 01:44:19;;;;;;;5.63;2.55;;;10.10;99.90;;;;;;5056683;28;20029;-79
2020/12/29 01:46:46;;;;;;;5.10;2.53;;;9.90;99.90;;;;;;5056540;28;20053;-80
2020/12/29 01:49:12;;;;;;;4.88;2.92;;;9.70;99.90;;;;;;5056584;28;20031;-79
2020/12/29 01:51:39;;;;;;;7.30;2.67;;;9.60;99.90;;;;;;5056358;28;20033;-79
2020/12/29 01:54:05;;;;;;;6.30;2.40;;;9.60;99.90;;;;;;5056473;28;20048;-79
2020/12/29 01:56:38;;;;;;;4.30;2.28;;;9.60;99.90;;;;;;5055103;28;20020;-78
2020/12/29 01:59:11;;;;;;;4.20;2.47;;;9.60;99.90;;;;;;5056273;28;20045;-78
2020/12/29 02:01:38;;;;;;;6.18;3.00;;;9.50;99.90;;;;;;5054974;28;20025;-79
2020/12/29 02:04:08;;;;;;;7.03;3.72;;;9.50;99.90;;;;;;5056135;28;20751;-78
2020/12/29 02:06:38;;;;;;;6.85;3.33;;;9.50;99.90;;;;;;5056060;28;20021;-78
2020/12/29 02:09:08;;;;;;;5.28;2.38;;;9.50;99.90;;;;;;5054848;28;20175;-78
2020/12/29 02:11:35;;;;;;;3.80;2.00;;;9.50;99.90;;;;;;5054778;28;20036;-77
2020/12/29 02:14:01;;;;;;;5.88;2.72;;;9.40;99.90;;;;;;5055910;28;20029;-78
2020/12/29 02:16:28;;;;;;;6.20;3.47;;;9.40;99.90;;;;;;5056081;28;20021;-78
2020/12/29 02:18:53;;;;;;;5.95;2.30;;;9.40;99.90;;;;;;5055925;28;20096;-78
2020/12/29 02:21:19;;;;;;;5.68;3.00;;;9.30;99.90;;;;;;5054664;28;20128;-78
2020/12/29 02:23:45;;;;;;;4.53;2.85;;;9.30;99.90;;;;;;5054211;28;20102;-78
2020/12/29 02:26:11;;;;;;;4.30;2.70;;;9.30;99.90;;;;;;5055678;28;20048;-77
2020/12/29 02:28:38;;;;;;;1.92;1.65;;;9.30;99.90;;;;;;5055750;28;20887;-78
2020/12/29 02:31:03;;;;;;;2.80;1.70;;;9.20;99.90;;;;;;5055523;28;20464;-78
2020/12/29 02:33:29;;;;;;;2.92;1.63;;;9.20;99.90;;;;;;5055690;28;20101;-77
2020/12/29 02:35:55;;;;;;;2.92;1.63;;;9.10;99.90;;;;;;5055553;28;20025;-78
2020/12/29 02:38:22;;;;;;;2.22;1.42;;;9.00;99.90;;;;;;5054832;28;20049;-78
2020/12/29 02:40:49;;;;;;;3.53;2.10;;;8.90;99.90;;;;;;5054214;28;20388;-78
2020/12/29 02:43:15;;;;;;;3.25;1.70;;;9.00;99.90;;;;;;5054271;28;20029;-78
2020/12/29 02:45:41;;;;;;;3.38;1.73;;;8.90;99.90;;;;;;5055450;28;20124;-78
2020/12/29 02:48:07;;;;;;;3.85;1.88;;;9.00;99.90;;;;;;5055358;28;20055;-78
2020/12/29 02:50:33;;;;;;;2.42;1.35;;;8.90;99.90;;;;;;5054051;28;20127;-78
2020/12/29 02:52:59;;;;;;;4.25;1.50;;;9.00;99.90;;;;;;5053986;28;20092;-78
2020/12/29 02:55:25;;;;;;;2.35;1.45;;;9.00;99.90;;;;;;5055171;28;20052;-78
2020/12/29 02:57:51;;;;;;;28.45;3.13;;;9.00;99.90;;;;;;5055067;28;20074;-77
2020/12/29 03:00:17;;;;;;;9.70;2.00;;;9.00;99.90;;;;;;5054874;28;20369;-77
2020/12/29 03:02:42;;;;;;;6.53;2.92;;;9.00;99.90;;;;;;5053702;28;20033;-78
2020/12/29 03:05:08;;;;;;;3.95;2.10;;;9.00;99.90;;;;;;5054860;28;20021;-78
2020/12/29 03:07:34;;;;;;;4.63;2.47;;;8.90;99.90;;;;;;5054609;28;20760;-78
2020/12/29 03:10:00;;;;;;;3.67;2.03;;;8.90;99.90;;;;;;5054753;28;20036;-78
2020/12/29 03:12:26;;;;;;;3.50;2.13;;;8.90;99.90;;;;;;5053434;28;20032;-78
2020/12/29 03:14:52;;;;;;;11.65;3.00;;;8.90;99.90;;;;;;5054591;28;20071;-78
2020/12/29 03:17:17;;;;;;;5.47;2.75;;;8.90;99.90;;;;;;5054614;28;20032;-77
2020/12/29 03:19:43;;;;;;;4.85;2.70;;;8.90;99.90;;;;;;5053347;28;20052;-77
2020/12/29 03:22:09;;;;;;;13.77;5.07;;;8.80;99.90;;;;;;5054399;28;20025;-77
2020/12/29 03:24:35;;;;;;;12.10;4.90;;;8.80;99.90;;;;;;5052965;28;20057;-77
2020/12/29 03:27:01;;;;;;;7.85;4.45;;;8.80;99.90;;;;;;5054295;28;20025;-77
2020/12/29 03:29:26;;;;;;;4.22;2.33;;;8.80;99.90;;;;;;5052945;28;20064;-77
2020/12/29 03:31:52;;;;;;;4.53;2.33;;;8.80;99.90;;;;;;5052833;28;20417;-77
2020/12/29 03:34:26;;;;;;;3.13;1.88;;;8.80;99.90;;;;;;5054360;28;20025;-77
2020/12/29 03:36:53;;;;;;;3.17;2.10;;;8.90;99.90;;;;;;5054028;28;20019;-78
2020/12/29 03:39:19;;;;;;;3.95;2.10;;;8.90;99.90;;;;;;5052852;28;20029;-78
2020/12/29 03:41:46;;;;;;;3.50;2.05;;;8.80;99.90;;;;;;5053976;28;20025;-78
2020/12/29 03:44:12;;;;;;;3.25;2.28;;;8.80;99.90;;;;;;5052595;28;20064;-77
2020/12/29 03:46:38;;;;;;;21.45;5.13;;;8.70;99.90;;;;;;5054074;28;20102;-78
2020/12/29 03:49:03;;;;;;;4.30;2.60;;;8.70;99.90;;;;;;5054074;28;20025;-78
2020/12/29 03:51:29;;;;;;;4.63;2.70;;;8.70;99.90;;;;;;5054131;28;20484;-78
2020/12/29 03:53:55;;;;;;;7.15;4.18;;;8.70;99.90;;;;;;5054057;28;20879;-78
2020/12/29 03:56:21;;;;;;;8.80;4.40;;;8.70;99.90;;;;;;5052735;28;20538;-78
2020/12/29 03:58:47;;;;;;;6.40;3.50;;;8.70;99.90;;;;;;5054107;28;20025;-78
2020/12/29 04:01:13;;;;;;;5.45;2.88;;;8.50;99.90;;;;;;5054011;28;20082;-78
2020/12/29 04:03:43;;;;;;;8.05;4.00;;;8.50;99.90;;;;;;5052693;28;20029;-78
2020/12/29 04:06:09;;;;;;;4.97;3.13;;;8.40;99.90;;;;;;5052768;28;20434;-78
2020/12/29 04:08:34;;;;;;;4.28;2.30;;;8.40;99.90;;;;;;5052604;28;20029;-79
2020/12/29 04:11:00;;;;;;;2.85;1.85;;;8.40;99.90;;;;;;5053726;28;20486;-78
2020/12/29 04:13:26;;;;;;;3.13;1.65;;;8.40;99.90;;;;;;5053883;28;20029;-78
2020/12/29 04:15:52;;;;;;;1.77;1.30;;;8.40;99.90;;;;;;5053784;28;20025;-78
2020/12/29 04:18:18;;;;;;;2.05;1.80;;;8.40;99.90;;;;;;5053730;28;20495;-78
2020/12/29 04:20:43;;;;;;;3.92;2.28;;;8.40;99.90;;;;;;5053678;28;20028;-78
2020/12/29 04:23:09;;;;;;;8.10;3.47;;;8.40;99.90;;;;;;5053465;28;20053;-78
2020/12/29 04:25:35;;;;;;;31.00;4.18;;;8.40;99.90;;;;;;5053568;28;20086;-78
2020/12/29 04:28:01;;;;;;;5.32;3.08;;;8.40;99.90;;;;;;5053629;28;20025;-78
2020/12/29 04:30:27;;;;;;;5.25;2.95;;;8.50;99.90;;;;;;5052210;28;20029;-78
2020/12/29 04:32:53;;;;;;;5.50;2.10;;;8.40;99.90;;;;;;5052348;28;20025;-78
2020/12/29 04:35:19;;;;;;;4.55;2.10;;;8.40;99.90;;;;;;5053493;28;20024;-78
2020/12/29 04:37:44;;;;;;;3.65;2.03;;;8.40;99.90;;;;;;5052177;28;20021;-78
2020/12/29 04:40:10;;;;;;;6.90;3.15;;;8.40;99.90;;;;;;5053378;28;20375;-78
2020/12/29 04:42:36;;;;;;;9.80;4.45;;;8.40;99.90;;;;;;5052106;28;20379;-78
2020/12/29 04:45:04;;;;;;;5.82;3.53;;;8.40;99.90;;;;;;5052179;28;20024;-78
2020/12/29 04:47:31;;;;;;;8.20;3.75;;;8.40;99.90;;;;;;5053242;28;20031;-78
2020/12/29 04:49:59;;;;;;;4.95;2.92;;;8.40;99.90;;;;;;5053345;28;20048;-78
2020/12/29 04:52:30;;;;;;;6.90;3.17;;;8.40;99.90;;;;;;5051960;28;20025;-78
2020/12/29 04:54:56;;;;;;;8.10;3.97;;;8.40;99.90;;;;;;5053287;28;20032;-78
2020/12/29 04:57:25;;;;;;;11.57;3.90;;;8.40;99.90;;;;;;5053169;28;20029;-78
2020/12/29 04:59:51;;;;;;;17.45;4.93;;;8.40;99.90;;;;;;5053272;28;20056;-78
2020/12/29 05:02:17;;;;;;;7.93;3.80;;;8.40;99.90;;;;;;5055933;28;20081;-79
2020/12/29 05:04:43;;;;;;;59.03;27.30;;;8.40;99.90;;;;;;5056024;28;20029;-79
2020/12/29 05:07:09;;;;;;;36.58;18.15;;;8.30;99.90;;;;;;5055994;28;20021;-79
2020/12/29 05:09:35;;;;;;;29.17;13.50;;;8.30;99.90;;;;;;5055989;28;20048;-79
2020/12/29 05:12:02;;;;;;;8.77;5.00;;;8.30;99.90;;;;;;5057083;28;20375;-79
2020/12/29 05:14:28;;;;;;;4.10;2.72;;;8.20;99.90;;;;;;5055835;28;20032;-79
2020/12/29 05:16:55;;;;;;;3.78;2.42;;;8.30;99.90;;;;;;5057188;28;20021;-79
2020/12/29 05:19:22;;;;;;;5.80;3.88;;;8.30;99.90;;;;;;5055640;28;20112;-79
2020/12/29 05:21:48;;;;;;;24.02;5.70;;;8.20;99.90;;;;;;5056965;28;20063;-79
2020/12/29 05:24:17;;;;;;;7.25;4.80;;;8.20;99.90;;;;;;5056818;28;20057;-79
2020/12/29 05:26:45;;;;;;;10.38;6.35;;;8.10;99.90;;;;;;5057004;28;20025;-79
2020/12/29 05:29:12;;;;;;;12.30;8.48;;;8.00;99.90;;;;;;5055647;28;20029;-79
2020/12/29 05:31:42;;;;;;;28.88;19.63;;;7.90;99.90;;;;;;5056756;28;20024;-79
2020/12/29 05:34:23;;;;;;;62.65;27.00;;;7.90;99.90;;;;;;5055391;28;20486;-78
2020/12/29 05:36:50;;;;;;;34.58;22.63;;;7.80;99.90;;;;;;5056640;28;20029;-78
2020/12/29 05:39:17;;;;;;;27.17;16.20;;;7.80;99.90;;;;;;5056655;28;20021;-78
2020/12/29 05:41:47;;;;;;;22.27;12.85;;;7.80;99.90;;;;;;5056690;28;20096;-78
2020/12/29 05:44:26;;;;;;;24.83;15.13;;;7.70;99.90;;;;;;5055320;28;20418;-78
2020/12/29 05:46:54;;;;;;;31.00;17.25;;;7.70;99.90;;;;;;5055193;28;20029;-78
2020/12/29 05:49:21;;;;;;;29.95;17.13;;;7.60;99.90;;;;;;5055104;28;20043;-78
2020/12/29 05:51:49;;;;;;;22.60;14.38;;;7.60;99.90;;;;;;5056173;28;20048;-78
2020/12/29 05:54:16;;;;;;;19.30;12.65;;;7.60;99.90;;;;;;5056329;28;20021;-78
2020/12/29 05:56:43;;;;;;;21.65;14.27;;;7.60;99.90;;;;;;5055148;28;20025;-78
2020/12/29 05:59:12;;;;;;;23.00;15.40;;;7.60;99.90;;;;;;5054948;28;20021;-78
2020/12/29 06:01:42;;;;;;;25.65;17.48;;;7.50;99.90;;;;;;5056247;28;20021;-78
2020/12/29 06:04:09;;;;;;;26.30;16.87;;;7.40;99.90;;;;;;5056196;28;20044;-78
2020/12/29 06:06:39;;;;;;;25.85;15.88;;;7.40;99.90;;;;;;5056132;28;20816;-78
2020/12/29 06:09:11;;;;;;;18.27;12.15;;;7.30;99.90;;;;;;5056079;28;20033;-78
2020/12/29 06:11:38;;;;;;;18.83;10.80;;;7.40;99.90;;;;;;5053766;28;20127;-78
2020/12/29 06:14:13;;;;;;;20.75;12.45;;;7.50;99.90;;;;;;5055550;28;20530;-78
2020/12/29 06:16:40;;;;;;;20.48;12.38;;;7.50;99.90;;;;;;5055903;28;20017;-78
2020/12/29 06:19:21;;;;;;;20.27;11.80;;;7.60;99.90;;;;;;5054230;28;20021;-78
2020/12/29 06:21:51;;;;;;;20.33;12.73;;;7.60;99.90;;;;;;5054633;28;20384;-78
2020/12/29 06:24:18;;;;;;;19.80;13.52;;;7.60;99.90;;;;;;5055416;28;20149;-78
2020/12/29 06:26:47;;;;;;;28.08;16.92;;;7.70;99.90;;;;;;5055665;28;20036;-78
2020/12/29 06:29:19;;;;;;;33.33;19.52;;;7.70;99.90;;;;;;5054784;28;20032;-78
2020/12/29 06:31:46;;;;;;;38.72;22.13;;;7.70;99.90;;;;;;5055666;28;20029;-78
2020/12/29 06:34:16;;;;;;;37.47;25.48;;;7.70;99.90;;;;;;5055566;28;20422;-78
2020/12/29 06:36:43;;;;;;;;;;;7.70;99.90;;;;;;5054782;28;20112;-78
2020/12/29 06:39:11;;;;;;;39.35;26.23;;;7.70;99.90;;;;;;5055607;28;20253;-78
2020/12/29 06:41:37;;;;;;;49.00;31.55;;;7.60;99.90;;;;;;5055516;28;20441;-79
2020/12/29 06:44:04;;;;;;;48.97;35.00;;;7.50;99.90;;;;;;5055445;28;20511;-79
2020/12/29 06:46:30;;;;;;;80.75;47.63;;;7.40;99.90;;;;;;5054231;28;20136;-79
2020/12/29 06:49:20;;;;;;;96.20;56.85;;;7.30;99.90;;;;;;5055296;28;20534;-78
2020/12/29 06:51:47;;;;;;;90.53;54.33;;;7.30;99.90;;;;;;5053984;28;20036;-79
2020/12/29 06:54:20;;;;;;;97.28;58.42;;;7.20;99.90;;;;;;5053965;28;20052;-78
2020/12/29 06:57:00;;;;;;;96.70;59.83;;;7.10;99.90;;;;;;5053952;28;20116;-79
2020/12/29 06:59:37;;;;;;;110.57;65.47;;;7.10;99.90;;;;;;5053886;28;20052;-78
2020/12/29 07:02:03;;;;;;;118.55;74.72;;;7.00;99.90;;;;;;5053669;28;20369;-78
2020/12/29 07:04:29;;;;;;;103.25;69.05;;;7.00;99.90;;;;;;5053646;28;20056;-79
2020/12/29 07:06:55;;;;;;;161.95;99.60;;;7.00;99.90;;;;;;5055090;28;20025;-78
2020/12/29 07:09:25;;;;;;;124.15;74.60;;;7.10;99.90;;;;;;5054949;28;20029;-78
2020/12/29 07:12:07;;;;;;;129.32;73.97;;;7.10;99.90;;;;;;5055071;28;20080;-78
2020/12/29 07:14:34;;;;;;;87.38;54.83;;;7.10;99.90;;;;;;5053115;28;20032;-78
2020/12/29 07:17:04;;;;;;;87.40;55.28;;;7.10;99.90;;;;;;5054673;28;20014;-78
2020/12/29 07:19:30;;;;;;;69.97;42.33;;;7.20;99.90;;;;;;5054957;28;20475;-78
2020/12/29 07:21:56;;;;;;;54.33;36.15;;;7.20;99.90;;;;;;5054430;28;20028;-78
2020/12/29 07:24:22;;;;;;;52.83;31.63;;;7.30;99.90;;;;;;5054104;28;20080;-78
2020/12/29 07:26:55;;;;;;;48.20;28.98;;;7.40;99.90;;;;;;5054222;28;20056;-78
2020/12/29 07:29:21;;;;;;;38.92;25.40;;;7.60;99.90;;;;;;5054658;28;20099;-78
2020/12/29 07:31:47;;;;;;;53.72;31.50;;;7.60;99.90;;;;;;5053042;28;20484;-78
2020/12/29 07:34:14;;;;;;;63.15;37.42;;;7.70;99.90;;;;;;5054485;28;20031;-78
2020/12/29 07:36:46;;;;;;;67.50;39.97;;;7.80;99.90;;;;;;5054171;28;20074;-78
2020/12/29 07:39:13;;;;;;;58.38;34.42;;;7.80;99.90;;;;;;5054351;28;20021;-78
2020/12/29 07:41:40;;;;;;;43.47;26.98;;;7.90;99.90;;;;;;5053020;28;20120;-78
2020/12/29 07:44:06;;;;;;;28.35;17.33;;;8.00;99.90;;;;;;5054187;28;20032;-78
2020/12/29 07:46:32;;;;;;;25.45;14.77;;;8.10;99.90;;;;;;5054092;28;20064;-78
2020/12/29 07:48:59;;;;;;;17.90;10.73;;;8.10;99.90;;;;;;5054057;28;20803;-77
2020/12/29 07:51:26;;;;;;;16.92;10.27;;;8.20;99.90;;;;;;5054029;28;20029;-78
2020/12/29 07:53:52;;;;;;;18.20;10.43;;;8.30;99.90;;;;;;5054159;28;20102;-78
2020/12/29 07:56:19;;;;;;;18.40;11.52;;;8.40;99.90;;;;;;5054274;28;20021;-78
2020/12/29 07:58:45;;;;;;;29.70;16.73;;;8.40;99.90;;;;;;5052751;28;20025;-78
2020/12/29 08:01:12;;;;;;;39.75;24.50;;;8.50;99.90;;;;;;5054188;28;20075;-78
2020/12/29 08:03:38;;;;;;;56.50;33.85;;;8.60;99.90;;;;;;5053896;28;20039;-78
2020/12/29 08:06:13;;;;;;;40.35;24.48;;;8.60;99.90;;;;;;5053651;28;20498;-77
2020/12/29 08:08:41;;;;;;;20.23;11.52;;;8.70;99.90;;;;;;5052474;28;20040;-78
2020/12/29 08:11:08;;;;;;;27.48;13.10;;;8.70;99.90;;;;;;5052516;28;20028;-78
2020/12/29 08:13:34;;;;;;;18.02;12.20;;;8.80;99.90;;;;;;5052613;28;20021;-78
2020/12/29 08:16:00;;;;;;;21.38;13.38;;;8.90;99.90;;;;;;5052377;28;20032;-78
2020/12/29 08:18:25;;;;;;;18.92;12.80;;;9.00;99.90;;;;;;5053761;28;20117;-78
2020/12/29 08:20:54;;;;;;;21.90;12.70;;;9.10;99.90;;;;;;5053665;28;20033;-77
2020/12/29 08:23:22;;;;;;;22.33;15.55;;;9.20;99.90;;;;;;5053402;28;20056;-78
2020/12/29 08:25:59;;;;;;;29.85;18.48;;;9.30;99.90;;;;;;5053598;28;20472;-78
2020/12/29 08:28:33;;;;;;;39.78;21.95;;;9.50;99.90;;;;;;5053578;28;20017;-78
2020/12/29 08:31:04;;;;;;;28.00;15.73;;;9.60;99.90;;;;;;5053328;28;20081;-78
2020/12/29 08:33:30;;;;;;;;;;;9.90;99.90;;;;;;5053630;28;20032;-78
2020/12/29 08:35:58;;;;;;;33.80;14.45;;;10.10;99.90;;;;;;5052100;28;19904;-77
2020/12/29 08:38:28;;;;;;;39.08;12.40;;;10.30;99.90;;;;;;5051662;28;20476;-79
2020/12/29 08:41:12;;;;;;;;;;;10.50;99.90;;;;;;5051759;28;20037;-76
2020/12/29 08:43:42;;;;;;;1073.05;642.97;;;10.60;99.90;;;;;;5052226;28;19928;-78
2020/12/29 08:46:10;;;;;;;1999.90;999.90;;;10.80;99.90;;;;;;5051643;28;20092;-82
2020/12/29 08:48:37;;;;;;;1158.75;685.15;;;10.90;99.90;;;;;;5051551;28;20059;-82
2020/12/29 08:51:26;;;;;;;1528.57;772.50;;;11.00;99.90;;;;;;5063356;28;20380;-82
2020/12/29 08:54:12;;;;;;;1412.73;789.83;;;11.20;99.90;;;;;;5052471;28;20045;-83
2020/12/29 08:56:39;;;;;;;621.13;400.48;;;11.50;99.90;;;;;;5052450;28;20027;-84
2020/12/29 08:59:13;;;;;;;1587.85;859.15;;;11.80;99.90;;;;;;5051718;28;20056;-82
2020/12/29 09:01:54;;;;;;;552.08;366.50;;;12.20;99.90;;;;;;5052500;28;20472;-78
2020/12/29 09:04:43;;;;;;;177.77;85.35;;;12.70;99.90;;;;;;5053234;28;20139;-80
2020/12/29 09:07:15;;;;;;;51.15;29.35;;;13.40;99.90;;;;;;5052766;28;20526;-80
2020/12/29 09:09:50;;;;;;;42.97;21.27;;;13.10;99.90;;;;;;5052538;28;20029;-80
2020/12/29 09:12:28;;;;;;;33.03;19.20;;;13.00;99.90;;;;;;5050932;28;20029;-81
2020/12/29 09:14:56;;;;;;;43.00;22.52;;;12.90;99.90;;;;;;5052152;28;20022;-79
2020/12/29 09:17:26;;;;;;;41.63;22.33;;;13.00;99.90;;;;;;5051890;28;20803;-80
2020/12/29 09:20:19;;;;;;;60.40;29.35;;;13.10;99.90;;;;;;5067922;28;20021;-80
2020/12/29 09:23:10;;;;;;;49.25;27.60;;;13.20;99.90;;;;;;5083137;28;20369;-79
2020/12/29 09:25:38;;;;;;;47.53;25.13;;;13.30;99.90;;;;;;5068105;28;20060;-79
2020/12/29 09:28:27;;;;;;;18.42;11.52;;;13.40;99.90;;;;;;5053261;28;20028;-79
2020/12/29 09:31:08;;;;;;;18.50;11.70;;;13.40;98.10;;;;;;5052858;28;20400;-79
2020/12/29 09:33:35;;;;;;;18.00;11.85;;;13.50;98.10;;;;;;5053007;28;20025;-79
2020/12/29 09:36:05;;;;;;;35.30;21.23;;;13.60;98.10;;;;;;5052803;28;20096;-79
2020/12/29 09:38:32;;;;;;;37.50;22.08;;;13.70;98.80;;;;;;5052959;28;20041;-79
2020/12/29 09:40:59;;;;;;;31.08;17.83;;;13.80;99.80;;;;;;5052932;28;20025;-79
2020/12/29 09:43:25;;;;;;;22.40;13.88;;;13.80;99.90;;;;;;5052722;28;20697;-79
2020/12/29 09:45:52;;;;;;;20.90;12.95;;;13.80;99.40;;;;;;5052854;28;20029;-79
2020/12/29 09:48:18;;;;;;;22.73;13.80;;;13.90;99.00;;;;;;5056416;28;20031;-79
2020/12/29 09:50:44;;;;;;;21.13;13.20;;;13.90;99.00;;;;;;5056201;28;20079;-79
2020/12/29 09:53:11;;;;;;;25.55;13.95;;;13.90;98.10;;;;;;5054900;28;20472;-78
2020/12/29 09:55:40;;;;;;;20.40;12.73;;;14.00;99.00;;;;;;5055213;28;20025;-77
2020/12/29 09:58:06;;;;;;;35.55;17.02;;;14.00;97.30;;;;;;5054631;28;20021;-78
2020/12/29 10:00:32;;;;;;;51.42;16.85;;;14.10;99.60;;;;;;5052702;28;20065;-77
2020/12/29 10:02:58;;;;;;;20.33;12.40;;;14.40;99.90;;;;;;5054845;28;20028;-77
2020/12/29 10:05:25;;;;;;;12.35;8.15;;;14.60;96.60;;;;;;5055303;28;20092;-77
2020/12/29 10:07:50;;;;;;;16.27;9.00;;;14.50;95.40;;;;;;5055809;28;20379;-78
2020/12/29 10:10:16;;;;;;;22.13;12.27;;;14.50;93.50;;;;;;5055310;28;20078;-77
2020/12/29 10:12:42;;;;;;;25.27;13.63;;;14.60;94.60;;;;;;5055552;28;20361;-78
2020/12/29 10:15:09;;;;;;;25.85;12.32;;;14.50;94.90;;;;;;5071099;28;20032;-78
2020/12/29 10:17:35;;;;;;;41.50;23.88;;;14.50;94.30;;;;;;5055759;28;20071;-79
2020/12/29 10:20:02;;;;;;;25.08;14.60;;;14.60;96.20;;;;;;5088029;28;20025;-79
2020/12/29 10:22:28;;;;;;;26.08;13.88;;;14.80;96.20;;;;;;5071022;28;20518;-79
2020/12/29 10:24:54;;;;;;;21.42;12.32;;;14.90;94.50;;;;;;5088129;28;20037;-79
2020/12/29 10:27:20;;;;;;;22.77;12.18;;;14.90;93.30;;;;;;5055740;28;20100;-81
2020/12/29 10:29:46;;;;;;;26.42;14.30;;;15.00;92.90;;;;;;5055718;28;20148;-81
2020/12/29 10:32:12;;;;;;;21.67;12.93;;;15.10;94.40;;;;;;5070916;28;20082;-81
2020/12/29 10:34:38;;;;;;;13.52;8.77;;;15.20;93.10;;;;;;5055609;28;20067;-81
2020/12/29 10:37:04;;;;;;;17.85;9.48;;;15.20;91.30;;;;;;5054396;28;20480;-81
2020/12/29 10:39:30;;;;;;;17.55;9.75;;;15.20;91.50;;;;;;5055585;28;20024;-81
2020/12/29 10:41:55;;;;;;;21.48;11.95;;;15.40;92.00;;;;;;5070912;28;20483;-81
2020/12/29 10:44:21;;;;;;;21.15;11.38;;;15.50;92.90;;;;;;5055452;28;20021;-81
2020/12/29 10:46:48;;;;;;;26.25;13.13;;;15.60;93.10;;;;;;5055535;28;20476;-81
2020/12/29 10:49:14;;;;;;;34.42;18.92;;;15.70;93.70;;;;;;5055393;28;20033;-82
2020/12/29 10:51:40;;;;;;;27.08;13.00;;;15.70;92.60;;;;;;5070704;28;20824;-81
2020/12/29 10:54:06;;;;;;;16.33;9.80;;;15.80;92.90;;;;;;5087374;28;20112;-81
2020/12/29 10:56:33;;;;;;;15.55;8.13;;;15.80;90.30;;;;;;5055189;28;20404;-81
2020/12/29 10:58:59;;;;;;;13.13;7.35;;;15.90;90.30;;;;;;5054512;28;20027;-82
2020/12/29 11:01:25;;;;;;;14.07;7.57;;;15.90;90.40;;;;;;5070479;28;20025;-81
2020/12/29 11:03:51;;;;;;;11.50;7.75;;;15.90;88.40;;;;;;5054717;28;20055;-80
2020/12/29 11:06:22;;;;;;;17.52;8.57;;;16.00;87.90;;;;;;5054922;28;20103;-80
2020/12/29 11:08:49;;;;;;;21.67;11.85;;;16.50;90.30;;;;;;5054950;28;20045;-79
2020/12/29 11:11:15;;;;;;;14.57;7.53;;;16.30;86.50;;;;;;5087254;28;20025;-78
2020/12/29 11:13:42;;;;;;;13.93;8.13;;;16.20;83.20;;;;;;5070406;28;20029;-79
2020/12/29 11:16:17;;;;;;;13.85;7.30;;;16.10;84.20;;;;;;5054848;28;20354;-80
2020/12/29 11:18:44;;;;;;;15.25;8.60;;;16.10;85.40;;;;;;5070243;28;20464;-79
2020/12/29 11:21:10;;;;;;;18.65;8.70;;;16.10;86.00;;;;;;5054782;28;20069;-79
2020/12/29 11:23:36;;;;;;;26.00;9.30;;;16.10;85.00;;;;;;5069811;28;20077;-79
2020/12/29 11:26:03;;;;;;;14.55;8.65;;;16.20;86.10;;;;;;5054663;28;20104;-79
2020/12/29 11:28:29;;;;;;;15.50;8.88;;;16.30;84.20;;;;;;5054605;28;20456;-80
2020/12/29 11:30:54;;;;;;;10.55;4.97;;;16.20;82.50;;;;;;5051922;28;20139;-81
2020/12/29 11:33:20;;;;;;;8.90;5.30;;;16.30;80.20;;;;;;5054022;28;20025;-80
2020/12/29 11:35:47;;;;;;;13.52;6.43;;;16.20;80.90;;;;;;5054447;28;20017;-80
2020/12/29 11:38:15;;;;;;;27.80;8.82;;;16.40;81.80;;;;;;5054434;28;20009;-79
2020/12/29 11:40:41;;;;;;;105.03;43.67;;;16.50;80.60;;;;;;5053994;28;20033;-79
2020/12/29 11:43:07;;;;;;;19.92;12.07;;;16.60;79.20;;;;;;5054233;28;20111;-80
2020/12/29 11:45:33;;;;;;;16.27;10.13;;;16.60;81.20;;;;;;5054522;28;20072;-80
2020/12/29 11:47:58;;;;;;;8.57;4.45;;;16.60;80.30;;;;;;5054250;28;20025;-79
2020/12/29 11:50:24;;;;;;;9.23;4.95;;;16.80;79.30;;;;;;5054126;28;20365;-80
2020/12/29 11:52:50;;;;;;;14.13;5.97;;;16.70;76.90;;;;;;5054105;28;20017;-80
2020/12/29 11:55:16;;;;;;;35.92;7.47;;;16.80;78.60;;;;;;5069459;28;20472;-80
2020/12/29 11:57:42;;;;;;;15.77;7.35;;;16.80;77.90;;;;;;5053727;28;20029;-80
2020/12/29 12:00:08;;;;;;;17.45;8.75;;;16.90;78.20;;;;;;5053846;28;20032;-79
2020/12/29 12:02:34;;;;;;;16.10;8.50;;;16.90;80.80;;;;;;5052928;28;20047;-79
2020/12/29 12:05:00;;;;;;;18.25;8.23;;;16.90;78.20;;;;;;5053878;28;20028;-79
2020/12/29 12:07:26;;;;;;;18.88;9.32;;;16.90;79.10;;;;;;5053752;28;20045;-80
2020/12/29 12:09:52;;;;;;;12.68;7.38;;;17.10;78.60;;;;;;5052626;28;20064;-79
2020/12/29 12:12:18;;;;;;;14.70;8.80;;;17.10;74.60;;;;;;5053734;28;20102;-79
2020/12/29 12:14:44;;;;;;;28.85;15.93;;;17.20;73.40;;;;;;5053690;28;20064;-80
2020/12/29 12:17:10;;;;;;;27.25;13.15;;;17.20;72.80;;;;;;5053978;28;20088;-80
2020/12/29 12:19:35;;;;;;;20.02;11.73;;;17.20;75.20;;;;;;5053759;28;20032;-80
2020/12/29 12:22:02;;;;;;;21.92;11.32;;;17.40;76.40;;;;;;5053560;28;20550;-80
2020/12/29 12:24:28;;;;;;;20.92;12.32;;;17.30;74.50;;;;;;5052272;28;20049;-80
2020/12/29 12:26:54;;;;;;;17.98;10.45;;;17.40;75.00;;;;;;5053644;28;20476;-81
2020/12/29 12:29:20;;;;;;;15.52;8.85;;;17.30;74.10;;;;;;5053574;28;20029;-81
2020/12/29 12:31:46;;;;;;;15.43;9.00;;;17.20;73.40;;;;;;5051930;28;20044;-82
2020/12/29 12:34:12;;;;;;;20.55;10.32;;;17.20;73.80;;;;;;5053359;28;20029;-80
2020/12/29 12:36:38;;;;;;;15.90;8.68;;;17.30;74.20;;;;;;5053379;28;20025;-84
2020/12/29 12:39:05;;;;;;;17.52;9.75;;;17.20;71.90;;;;;;5053275;28;20067;-81
2020/12/29 12:41:34;;;;;;;17.15;8.07;;;17.10;73.40;;;;;;5051961;28;20090;-79
2020/12/29 12:44:00;;;;;;;21.27;12.02;;;17.30;74.50;;;;;;5052645;28;20021;-80